Time;durP1;ratioP1;P1;durP2;ratioP2;P2;SDS_P1;SDS_P2;PMS_P1;PMS_P2;Temp;Humidity;BMP_temperature;BMP_pressure;BME280_temperature;BME280_humidity;BME280_pressure;Samples;Min_cycle;Max_cycle;Signal;HPM_P1;HPM_P2
2024/03/13 00:01:04;;;;;;;15.75;9.20;;;5.80;99.90;;;;;;5065773;28;20078;-75
2024/03/13 00:03:32;;;;;;;14.35;8.25;;;5.80;99.90;;;;;;5069073;28;20020;-75
2024/03/13 00:05:58;;;;;;;12.10;7.43;;;5.90;99.90;;;;;;5062218;28;20534;-76
2024/03/13 00:08:24;;;;;;;10.90;6.80;;;5.90;99.90;;;;;;5067588;28;20507;-76
2024/03/13 00:10:50;;;;;;;13.30;6.85;;;5.80;99.90;;;;;;5067656;28;20048;-76
2024/03/13 00:13:16;;;;;;;15.23;6.90;;;5.80;99.90;;;;;;5066784;28;20017;-76
2024/03/13 00:15:45;;;;;;;11.23;7.03;;;5.80;99.90;;;;;;5070505;28;20024;-77
2024/03/13 00:18:10;;;;;;;10.85;6.28;;;5.80;99.90;;;;;;5069220;28;20032;-76
2024/03/13 00:20:37;;;;;;;10.25;6.20;;;5.70;99.90;;;;;;5059437;28;20115;-76
2024/03/13 00:23:03;;;;;;;9.82;5.20;;;5.70;99.90;;;;;;5063596;28;20029;-76
2024/03/13 00:25:29;;;;;;;8.35;5.00;;;5.80;99.90;;;;;;5084456;28;20037;-75
2024/03/13 00:27:55;;;;;;;9.00;4.93;;;5.70;99.90;;;;;;5079263;28;20085;-76
2024/03/13 00:30:22;;;;;;;9.82;4.70;;;5.70;99.90;;;;;;5072644;28;20115;-76
2024/03/13 00:32:53;;;;;;;9.90;4.53;;;5.70;99.90;;;;;;5072712;28;20031;-76
2024/03/13 00:35:20;;;;;;;6.93;4.15;;;5.70;99.90;;;;;;5071908;28;20032;-76
2024/03/13 00:37:47;;;;;;;6.88;4.15;;;5.70;99.90;;;;;;5030354;28;20041;-77
2024/03/13 00:40:14;;;;;;;7.03;3.65;;;5.60;99.90;;;;;;5030563;28;20414;-76
2024/03/13 00:42:42;;;;;;;6.82;2.58;;;5.60;99.90;;;;;;5036054;28;20126;-75
2024/03/13 00:45:13;;;;;;;7.53;2.67;;;5.60;99.90;;;;;;5028290;28;20036;-76
2024/03/13 00:47:41;;;;;;;5.25;2.53;;;5.60;99.90;;;;;;5030525;28;20037;-76
2024/03/13 00:50:08;;;;;;;3.63;2.53;;;5.70;99.90;;;;;;5029860;28;20028;-77
2024/03/13 00:52:38;;;;;;;4.72;3.10;;;5.60;99.90;;;;;;5029590;28;20030;-77
2024/03/13 00:55:04;;;;;;;;;;;5.60;99.90;;;;;;5030721;28;20145;-77
2024/03/13 00:57:30;;;;;;;4.38;2.30;;;5.60;99.90;;;;;;5034758;28;19912;-77
2024/03/13 00:59:58;;;;;;;7.35;2.67;;;5.60;99.90;;;;;;5030346;28;20744;-77
2024/03/13 01:02:24;;;;;;;5.57;2.65;;;5.60;99.90;;;;;;5030701;28;20488;-77
2024/03/13 01:04:50;;;;;;;3.35;2.20;;;5.60;99.90;;;;;;5026851;28;20030;-77
2024/03/13 01:07:15;;;;;;;5.63;2.95;;;5.60;99.90;;;;;;5029294;28;20072;-78
2024/03/13 01:09:44;;;;;;;3.42;2.20;;;5.60;99.90;;;;;;5066768;28;20508;-79
2024/03/13 01:12:10;;;;;;;3.53;2.30;;;5.60;99.90;;;;;;5071353;28;20029;-78
2024/03/13 01:14:38;;;;;;;2.67;1.90;;;5.70;99.90;;;;;;5071905;28;20024;-78
2024/03/13 01:17:04;;;;;;;3.20;1.92;;;5.60;99.90;;;;;;5071811;28;20036;-78
2024/03/13 01:19:34;;;;;;;3.35;1.90;;;5.60;99.90;;;;;;5080216;28;20020;-77
2024/03/13 01:22:10;;;;;;;3.20;1.87;;;5.60;99.90;;;;;;5036580;28;20048;-77
2024/03/13 01:24:36;;;;;;;3.47;2.00;;;5.60;99.90;;;;;;5072314;28;20056;-77
2024/03/13 01:27:02;;;;;;;2.80;1.85;;;5.60;99.90;;;;;;5067130;28;20433;-77
2024/03/13 01:29:28;;;;;;;3.78;1.70;;;5.50;99.90;;;;;;5064558;28;20052;-76
2024/03/13 01:31:57;;;;;;;2.40;1.80;;;5.50;99.90;;;;;;5065659;28;20280;-77
2024/03/13 01:34:24;;;;;;;1.42;1.33;;;5.50;99.90;;;;;;5010142;28;20473;-77
2024/03/13 01:39:51;;;;;;;5.18;1.65;;;5.50;99.90;;;;;;5022574;28;20029;-77
2024/03/13 01:56:21;;;;;;;2.35;1.15;;;5.40;99.90;;;;;;5072889;28;20031;-77
2024/03/13 01:59:02;;;;;;;1.63;1.33;;;5.40;99.90;;;;;;5071325;28;20052;-77
2024/03/13 02:04:22;;;;;;;3.28;1.27;;;5.40;99.90;;;;;;5085768;28;20032;-77
2024/03/13 02:06:49;;;;;;;2.13;1.10;;;5.40;99.90;;;;;;5064018;28;20033;-76
2024/03/13 02:09:15;;;;;;;1.98;1.10;;;5.40;99.90;;;;;;5069208;28;20024;-75
2024/03/13 02:11:42;;;;;;;1.45;0.95;;;5.40;99.90;;;;;;5070433;28;20013;-77
2024/03/13 02:14:15;;;;;;;0.68;0.60;;;5.50;99.90;;;;;;5045045;28;20374;-77
2024/03/13 02:16:42;;;;;;;0.70;0.68;;;5.40;99.90;;;;;;5069124;28;20032;-76
2024/03/13 02:19:08;;;;;;;0.60;0.60;;;5.40;99.90;;;;;;5046984;28;20064;-77
2024/03/13 02:21:35;;;;;;;0.98;0.90;;;5.40;99.90;;;;;;5071664;28;20062;-77
2024/03/13 02:24:01;;;;;;;0.60;0.40;;;5.40;99.90;;;;;;5076333;28;20040;-79
2024/03/13 02:26:27;;;;;;;0.85;0.47;;;5.50;99.90;;;;;;5078971;28;20029;-78
2024/03/13 02:28:52;;;;;;;0.43;0.35;;;5.50;99.90;;;;;;5048233;28;20048;-77
2024/03/13 02:31:18;;;;;;;0.98;0.43;;;5.50;99.90;;;;;;5080638;28;20021;-78
2024/03/13 02:33:44;;;;;;;2.17;0.60;;;5.50;99.90;;;;;;5068948;28;20036;-78
2024/03/13 02:36:09;;;;;;;3.90;0.70;;;5.50;99.90;;;;;;5063187;28;20111;-78
2024/03/13 02:38:35;;;;;;;0.98;0.52;;;5.50;99.90;;;;;;5064785;28;20057;-78
2024/03/13 02:41:02;;;;;;;0.85;0.60;;;5.50;99.90;;;;;;5053545;28;20037;-78
2024/03/13 02:43:32;;;;;;;0.88;0.40;;;5.50;99.90;;;;;;5070553;28;20020;-78
2024/03/13 02:46:00;;;;;;;1.03;0.40;;;5.50;99.90;;;;;;5065311;28;20021;-78
2024/03/13 02:48:25;;;;;;;1.30;0.60;;;5.50;99.90;;;;;;5062648;28;20746;-79
2024/03/13 02:50:57;;;;;;;1.20;0.63;;;5.50;99.90;;;;;;5065793;28;20032;-79
2024/03/13 02:53:22;;;;;;;0.50;0.50;;;5.40;99.90;;;;;;5054273;28;20432;-79
2024/03/13 02:55:48;;;;;;;3.20;0.60;;;5.50;99.90;;;;;;5055297;28;20029;-79
2024/03/13 02:58:14;;;;;;;2.85;0.50;;;5.40;99.90;;;;;;5043533;28;20029;-78
2024/03/13 03:00:39;;;;;;;3.83;0.68;;;5.40;99.90;;;;;;5071969;28;20016;-78
2024/03/13 03:03:11;;;;;;;0.68;0.68;;;5.50;99.90;;;;;;5043955;28;20550;-79
2024/03/13 03:05:38;;;;;;;3.15;0.70;;;5.50;99.90;;;;;;5059027;28;20061;-79
2024/03/13 03:08:07;;;;;;;2.80;0.80;;;5.40;99.90;;;;;;5070382;28;20023;-78
2024/03/13 03:10:33;;;;;;;1.20;0.90;;;5.40;99.90;;;;;;5070241;28;20025;-79
2024/03/13 03:12:58;;;;;;;1.40;1.00;;;5.40;99.90;;;;;;5043068;28;20043;-79
2024/03/13 03:15:28;;;;;;;1.00;1.00;;;5.40;99.90;;;;;;5070094;28;20036;-79
2024/03/13 03:17:54;;;;;;;1.65;1.23;;;5.40;99.90;;;;;;5064680;28;20233;-79
2024/03/13 03:20:20;;;;;;;1.45;1.35;;;5.40;99.90;;;;;;5056736;28;20381;-81
2024/03/13 03:22:46;;;;;;;1.27;1.17;;;5.40;99.90;;;;;;5059319;28;20150;-80
2024/03/13 03:25:12;;;;;;;1.90;1.23;;;5.40;99.90;;;;;;5084991;28;20141;-81
2024/03/13 03:27:37;;;;;;;1.67;1.20;;;5.40;99.90;;;;;;5107253;28;20073;-81
2024/03/13 03:30:06;;;;;;;2.75;1.00;;;5.40;99.90;;;;;;5092709;28;20029;-79
2024/03/13 03:32:37;;;;;;;1.35;1.13;;;5.30;99.90;;;;;;5107576;28;20039;-78
2024/03/13 03:35:10;;;;;;;1.77;0.80;;;5.30;99.90;;;;;;5084156;28;20024;-79
2024/03/13 03:37:38;;;;;;;1.13;0.90;;;5.30;99.90;;;;;;5090612;28;20020;-79
2024/03/13 03:40:23;;;;;;;2.42;1.10;;;5.20;99.90;;;;;;5090054;28;20027;-79
2024/03/13 03:42:50;;;;;;;2.67;1.10;;;5.20;99.90;;;;;;5086410;28;20009;-78
2024/03/13 03:45:16;;;;;;;2.25;1.10;;;5.20;99.90;;;;;;5082269;28;20024;-78
2024/03/13 03:47:42;;;;;;;2.58;1.15;;;5.10;99.90;;;;;;5058845;28;20031;-78
2024/03/13 03:50:08;;;;;;;1.33;0.98;;;5.10;99.90;;;;;;5073091;28;20025;-80
2024/03/13 03:52:34;;;;;;;1.00;0.90;;;5.10;99.90;;;;;;5068670;28;20557;-78
2024/03/13 03:55:02;;;;;;;3.97;1.10;;;5.10;99.90;;;;;;5063823;28;20035;-79
2024/03/13 03:57:28;;;;;;;1.33;0.70;;;5.10;99.90;;;;;;5047656;28;20569;-79
2024/03/13 03:59:55;;;;;;;1.85;0.93;;;5.10;99.90;;;;;;5081921;28;20101;-78
2024/03/13 04:02:21;;;;;;;2.08;0.90;;;5.10;99.90;;;;;;5058633;28;20032;-79
2024/03/13 04:04:47;;;;;;;0.98;0.85;;;5.00;99.90;;;;;;5066457;28;20028;-79
2024/03/13 04:07:16;;;;;;;1.83;0.70;;;5.00;99.90;;;;;;5094721;28;20081;-79
2024/03/13 04:09:41;;;;;;;1.42;0.95;;;5.10;99.90;;;;;;5092617;28;20040;-79
2024/03/13 04:12:07;;;;;;;1.65;1.05;;;5.10;99.90;;;;;;5082856;28;20048;-78
2024/03/13 04:14:35;;;;;;;2.38;0.70;;;5.10;99.90;;;;;;5091545;28;20487;-81
2024/03/13 04:17:00;;;;;;;0.77;0.70;;;5.10;99.90;;;;;;5021858;28;20045;-78
2024/03/13 04:19:26;;;;;;;1.33;0.93;;;5.10;99.90;;;;;;5087310;28;20379;-78
2024/03/13 04:21:53;;;;;;;0.80;0.80;;;5.10;99.90;;;;;;5087290;28;20066;-78
2024/03/13 04:24:19;;;;;;;2.63;0.95;;;5.10;99.90;;;;;;5085180;28;20040;-79
2024/03/13 04:26:46;;;;;;;2.13;1.27;;;5.10;99.90;;;;;;5084139;28;20462;-80
2024/03/13 04:29:11;;;;;;;1.98;1.02;;;5.10;99.90;;;;;;5082692;28;20082;-80
2024/03/13 04:31:39;;;;;;;1.02;1.02;;;5.10;99.90;;;;;;5086943;28;20016;-81
2024/03/13 04:34:08;;;;;;;1.45;1.23;;;5.10;99.90;;;;;;5068585;28;20027;-81
2024/03/13 04:36:40;;;;;;;1.70;1.52;;;5.10;99.90;;;;;;5091848;28;20024;-81
2024/03/13 04:39:12;;;;;;;1.60;1.50;;;5.20;99.90;;;;;;5080895;28;20432;-80
2024/03/13 04:41:41;;;;;;;1.98;1.58;;;5.10;99.90;;;;;;5078076;28;20103;-81
2024/03/13 04:44:10;;;;;;;2.17;1.98;;;5.10;99.90;;;;;;5084114;28;20032;-80
2024/03/13 04:46:38;;;;;;;2.80;1.90;;;5.10;99.90;;;;;;5086727;28;20114;-80
2024/03/13 04:49:04;;;;;;;1.75;1.65;;;5.10;99.90;;;;;;5088111;28;20027;-80
2024/03/13 04:51:30;;;;;;;2.30;2.08;;;5.10;99.90;;;;;;5089098;28;20024;-80
2024/03/13 04:53:56;;;;;;;2.30;2.10;;;5.10;99.90;;;;;;5083353;28;20019;-80
2024/03/13 04:56:21;;;;;;;2.25;2.08;;;5.10;99.90;;;;;;5057633;28;20828;-81
2024/03/13 04:58:47;;;;;;;2.08;1.90;;;5.10;99.90;;;;;;5086116;28;20028;-81
2024/03/13 05:01:22;;;;;;;5.03;2.10;;;5.10;99.90;;;;;;5091699;28;20028;-81
2024/03/13 05:03:49;;;;;;;2.50;2.22;;;5.10;99.90;;;;;;5080069;28;20020;-80
2024/03/13 05:06:15;;;;;;;2.47;2.28;;;5.10;99.90;;;;;;5077651;28;20407;-80
2024/03/13 05:08:40;;;;;;;4.68;1.85;;;5.10;99.90;;;;;;5087571;28;20025;-82
2024/03/13 05:11:09;;;;;;;3.70;2.30;;;5.10;99.90;;;;;;5093199;28;20025;-81
2024/03/13 05:13:38;;;;;;;4.22;2.55;;;5.10;99.90;;;;;;5071920;28;20490;-80
2024/03/13 05:16:04;;;;;;;3.53;2.25;;;5.10;99.90;;;;;;5072536;28;20021;-82
2024/03/13 05:18:30;;;;;;;2.83;2.50;;;5.10;99.90;;;;;;5083120;28;20558;-82
2024/03/13 05:21:00;;;;;;;3.08;2.50;;;5.20;99.90;;;;;;5028213;28;20040;-80
2024/03/13 05:23:27;;;;;;;3.45;2.55;;;5.20;99.90;;;;;;5070038;28;20024;-80
2024/03/13 05:25:55;;;;;;;4.00;2.75;;;5.20;99.90;;;;;;5073073;28;20041;-80
2024/03/13 05:28:21;;;;;;;3.60;2.80;;;5.20;99.90;;;;;;5074384;28;20542;-81
2024/03/13 05:30:49;;;;;;;3.10;2.60;;;5.20;99.90;;;;;;5073551;28;20028;-80
2024/03/13 05:33:14;;;;;;;4.03;2.88;;;5.20;99.90;;;;;;5064932;28;20021;-80
2024/03/13 05:35:40;;;;;;;3.33;2.60;;;5.20;99.90;;;;;;5054795;28;20089;-80
2024/03/13 05:38:06;;;;;;;4.57;3.13;;;5.20;99.90;;;;;;5073208;28;20056;-81
2024/03/13 05:40:32;;;;;;;4.32;3.20;;;5.20;99.90;;;;;;5072109;28;20032;-81
2024/03/13 05:42:58;;;;;;;3.83;2.90;;;5.20;99.90;;;;;;5053529;28;20059;-81
2024/03/13 05:45:24;;;;;;;5.63;3.45;;;5.20;99.90;;;;;;5066419;28;20064;-82
2024/03/13 05:47:52;;;;;;;4.95;3.38;;;5.30;99.90;;;;;;5071284;28;20100;-80
2024/03/13 05:50:18;;;;;;;3.08;2.67;;;5.30;99.90;;;;;;5087742;28;20039;-80
2024/03/13 05:52:47;;;;;;;8.60;3.53;;;5.30;99.90;;;;;;5073284;28;20020;-79
2024/03/13 05:55:14;;;;;;;4.20;3.67;;;5.40;99.90;;;;;;5072670;28;20079;-81
2024/03/13 05:57:41;;;;;;;4.50;2.83;;;5.40;99.90;;;;;;5072287;28;20020;-80
2024/03/13 06:00:09;;;;;;;3.42;3.10;;;5.40;99.90;;;;;;5071385;28;20119;-80
2024/03/13 06:02:36;;;;;;;4.20;3.80;;;5.40;99.90;;;;;;5072800;28;20035;-80
2024/03/13 06:05:09;;;;;;;4.35;3.30;;;5.50;99.90;;;;;;5036830;28;20468;-80
2024/03/13 06:07:38;;;;;;;4.78;4.28;;;5.50;99.90;;;;;;5070426;28;20024;-79
2024/03/13 06:10:10;;;;;;;6.95;4.50;;;5.50;99.90;;;;;;5065407;28;20023;-81
2024/03/13 06:12:37;;;;;;;6.65;4.43;;;5.60;99.90;;;;;;5068704;28;20415;-82
2024/03/13 06:15:12;;;;;;;5.20;4.70;;;5.60;99.90;;;;;;5075861;28;20028;-81
2024/03/13 06:17:37;;;;;;;5.65;5.10;;;5.60;99.90;;;;;;5049059;28;20104;-81
2024/03/13 06:20:11;;;;;;;5.72;4.60;;;5.60;99.90;;;;;;5037043;28;20127;-78
2024/03/13 06:22:37;;;;;;;5.40;4.90;;;5.70;99.90;;;;;;5071247;28;20029;-76
2024/03/13 06:25:08;;;;;;;6.03;4.70;;;5.70;99.90;;;;;;5075519;28;20066;-75
2024/03/13 06:27:34;;;;;;;6.97;5.07;;;5.70;99.90;;;;;;5080360;28;20093;-75
2024/03/13 06:30:03;;;;;;;10.55;4.95;;;5.70;99.90;;;;;;5078538;28;20120;-75
2024/03/13 06:32:28;;;;;;;7.78;6.10;;;5.80;99.90;;;;;;5095977;28;20063;-74
2024/03/13 06:34:56;;;;;;;8.80;6.40;;;5.80;99.90;;;;;;5090993;28;20478;-77
2024/03/13 06:37:25;;;;;;;7.53;5.55;;;5.80;99.90;;;;;;5066088;28;20103;-77
2024/03/13 06:39:52;;;;;;;7.63;6.03;;;5.90;99.90;;;;;;5072456;28;20387;-76
2024/03/13 06:42:18;;;;;;;8.02;6.53;;;5.90;99.90;;;;;;5091539;28;20018;-77
2024/03/13 06:44:44;;;;;;;6.10;5.35;;;6.00;99.90;;;;;;5087717;28;20016;-73
2024/03/13 06:47:11;;;;;;;7.25;5.57;;;6.00;99.90;;;;;;5084136;28;20101;-71
2024/03/13 06:49:38;;;;;;;6.03;5.43;;;6.00;99.90;;;;;;5081088;28;20027;-73
2024/03/13 06:52:05;;;;;;;6.70;5.55;;;6.00;99.90;;;;;;5072911;28;20059;-73
2024/03/13 06:54:31;;;;;;;7.30;5.78;;;6.10;99.90;;;;;;5088086;28;20028;-74
2024/03/13 06:56:56;;;;;;;6.75;5.60;;;6.20;99.90;;;;;;5087186;28;20047;-76
2024/03/13 06:59:23;;;;;;;5.55;4.85;;;6.20;99.90;;;;;;5091233;28;20024;-75
2024/03/13 07:02:01;;;;;;;6.20;5.45;;;6.30;99.90;;;;;;5089690;28;20068;-82
2024/03/13 07:04:26;;;;;;;6.22;5.10;;;6.30;99.90;;;;;;5087870;28;20029;-79
2024/03/13 07:06:57;;;;;;;6.72;5.20;;;6.40;99.90;;;;;;5089364;28;20043;-79
2024/03/13 07:09:26;;;;;;;5.10;4.60;;;6.50;99.90;;;;;;5069316;28;20548;-77
2024/03/13 07:11:52;;;;;;;5.68;4.22;;;6.50;99.90;;;;;;5089832;28;20012;-78
2024/03/13 07:14:19;;;;;;;5.60;4.35;;;6.60;99.90;;;;;;5091125;28;20020;-77
2024/03/13 07:16:46;;;;;;;5.03;4.53;;;6.70;99.90;;;;;;5090750;28;20038;-74
2024/03/13 07:19:13;;;;;;;4.32;3.92;;;6.80;99.90;;;;;;5040507;28;20024;-74
2024/03/13 07:21:40;;;;;;;4.22;3.78;;;6.90;99.90;;;;;;5071267;28;20024;-75
2024/03/13 07:24:09;;;;;;;4.70;4.22;;;6.90;99.90;;;;;;5092280;28;20110;-74
2024/03/13 07:26:35;;;;;;;3.58;3.28;;;7.00;99.90;;;;;;5059286;28;20124;-80
2024/03/13 07:29:04;;;;;;;4.82;3.47;;;7.00;99.90;;;;;;5092310;28;20020;-80
2024/03/13 07:31:30;;;;;;;3.58;3.28;;;7.00;99.90;;;;;;5072729;28;20103;-74
2024/03/13 07:33:58;;;;;;;4.50;3.50;;;7.10;99.90;;;;;;5080524;28;20452;-75
2024/03/13 07:36:24;;;;;;;5.32;3.65;;;7.20;99.90;;;;;;5080632;28;20492;-74
2024/03/13 07:38:49;;;;;;;5.30;4.07;;;7.30;99.90;;;;;;5085062;28;20023;-72
2024/03/13 07:41:16;;;;;;;4.10;3.60;;;7.40;99.90;;;;;;5074770;28;20016;-74
2024/03/13 07:43:42;;;;;;;4.88;4.38;;;7.50;99.90;;;;;;5071330;28;20059;-75
2024/03/13 07:46:11;;;;;;;5.50;4.47;;;7.50;99.90;;;;;;5073222;28;20059;-75
2024/03/13 07:48:37;;;;;;;3.90;3.60;;;7.60;99.90;;;;;;5088535;28;20020;-75
2024/03/13 07:51:06;;;;;;;4.00;3.63;;;7.60;99.90;;;;;;5053325;28;20029;-74
2024/03/13 07:53:33;;;;;;;6.32;3.72;;;7.60;99.90;;;;;;5086965;28;20051;-75
2024/03/13 07:55:59;;;;;;;4.78;3.38;;;7.60;99.90;;;;;;5082557;28;20020;-72
2024/03/13 07:58:26;;;;;;;3.63;3.10;;;7.60;99.90;;;;;;5077370;28;20074;-75
2024/03/13 08:00:54;;;;;;;3.92;3.53;;;7.60;99.90;;;;;;5066146;28;20052;-75
2024/03/13 08:03:22;;;;;;;3.83;3.40;;;7.70;99.90;;;;;;5074306;28;20518;-74
2024/03/13 08:05:51;;;;;;;4.82;3.60;;;7.80;99.90;;;;;;5083002;28;20071;-74
2024/03/13 08:08:23;;;;;;;3.37;3.07;;;7.80;99.90;;;;;;5097881;28;20111;-74
2024/03/13 08:10:49;;;;;;;3.08;2.88;;;7.80;99.90;;;;;;5073650;28;20448;-74
2024/03/13 08:13:16;;;;;;;4.22;3.20;;;7.90;99.90;;;;;;5076457;28;20034;-73
2024/03/13 08:15:41;;;;;;;3.95;3.55;;;7.90;99.90;;;;;;5097976;28;20444;-74
2024/03/13 08:18:14;;;;;;;7.10;3.55;;;8.00;99.90;;;;;;5092608;28;20050;-74
2024/03/13 08:20:40;;;;;;;3.22;2.90;;;8.00;99.90;;;;;;5080312;28;20031;-75
2024/03/13 08:23:08;;;;;;;3.83;3.42;;;8.00;99.90;;;;;;5077441;28;20056;-75
2024/03/13 08:25:34;;;;;;;2.95;2.75;;;8.00;99.90;;;;;;5071189;28;20111;-75
2024/03/13 08:28:01;;;;;;;4.20;3.80;;;8.10;99.90;;;;;;5081874;28;20020;-74
2024/03/13 08:30:28;;;;;;;4.38;3.25;;;8.10;99.90;;;;;;5065565;28;20021;-74
2024/03/13 08:32:55;;;;;;;4.22;3.35;;;8.10;99.90;;;;;;5074855;28;20059;-73
2024/03/13 08:35:24;;;;;;;4.43;4.03;;;8.20;99.90;;;;;;5073582;28;20024;-75
2024/03/13 08:37:50;;;;;;;5.67;4.23;;;8.30;99.90;;;;;;5090360;28;20024;-75
2024/03/13 08:40:17;;;;;;;4.07;3.78;;;8.30;99.90;;;;;;5093857;28;20024;-74
2024/03/13 08:42:45;;;;;;;5.15;4.57;;;8.50;99.90;;;;;;5080871;28;20434;-74
2024/03/13 08:45:13;;;;;;;5.00;3.92;;;8.60;99.90;;;;;;5073644;28;20056;-73
2024/03/13 08:47:39;;;;;;;3.85;3.53;;;8.70;99.90;;;;;;5060458;28;20412;-74
2024/03/13 08:50:05;;;;;;;4.43;3.80;;;8.90;99.90;;;;;;5066231;28;20025;-74
2024/03/13 08:52:34;;;;;;;4.75;3.45;;;9.00;99.90;;;;;;5064894;28;20044;-73
2024/03/13 08:55:00;;;;;;;4.07;3.67;;;9.10;99.90;;;;;;5085707;28;20193;-74
2024/03/13 08:57:28;;;;;;;4.30;3.20;;;9.30;99.90;;;;;;5073450;28;20470;-73
2024/03/13 08:59:55;;;;;;;4.05;2.35;;;9.50;99.90;;;;;;5071299;28;20165;-71
2024/03/13 09:02:20;;;;;;;2.95;2.55;;;9.60;99.90;;;;;;5081793;28;20020;-73
2024/03/13 09:04:48;;;;;;;2.30;2.10;;;9.70;99.90;;;;;;5092370;28;20016;-73
2024/03/13 09:07:13;;;;;;;2.20;1.95;;;9.80;99.90;;;;;;5096199;28;20016;-74
2024/03/13 09:09:39;;;;;;;3.33;2.40;;;9.90;99.90;;;;;;5091547;28;20013;-73
2024/03/13 09:12:13;;;;;;;4.78;3.25;;;10.00;99.90;;;;;;5091298;28;20024;-72
2024/03/13 09:14:39;;;;;;;6.18;3.88;;;10.10;99.90;;;;;;5087808;28;20035;-74
2024/03/13 09:17:05;;;;;;;8.30;3.60;;;10.20;99.90;;;;;;5077445;28;20031;-73
2024/03/13 09:19:37;;;;;;;8.52;3.85;;;10.20;99.90;;;;;;5063267;28;20025;-74
2024/03/13 09:22:07;;;;;;;6.97;4.28;;;10.10;99.90;;;;;;5083601;28;20110;-73
2024/03/13 09:24:34;;;;;;;4.75;3.80;;;10.10;99.90;;;;;;5086260;28;20075;-74
2024/03/13 09:27:02;;;;;;;6.60;3.70;;;10.10;99.90;;;;;;5057162;28;20056;-73
2024/03/13 09:29:28;;;;;;;9.02;4.03;;;10.20;99.90;;;;;;5096972;28;20027;-74
2024/03/13 09:31:54;;;;;;;5.70;3.47;;;10.20;99.90;;;;;;5080053;28;20918;-73
2024/03/13 09:34:21;;;;;;;4.50;3.88;;;10.20;99.90;;;;;;5074474;28;20031;-74
2024/03/13 09:36:50;;;;;;;5.45;3.42;;;10.30;99.90;;;;;;5087744;28;20044;-73
2024/03/13 09:39:16;;;;;;;4.43;3.50;;;10.30;99.90;;;;;;5074649;28;20479;-73
2024/03/13 09:41:44;;;;;;;4.88;3.70;;;10.30;99.90;;;;;;5073443;28;20034;-73
2024/03/13 09:44:11;;;;;;;5.50;3.50;;;10.30;99.90;;;;;;5065991;28;20081;-73
2024/03/13 09:46:39;;;;;;;4.68;3.17;;;10.30;99.90;;;;;;5091678;28;20020;-73
2024/03/13 09:49:06;;;;;;;4.82;4.03;;;10.30;99.90;;;;;;5074153;28;20024;-73
2024/03/13 09:51:34;;;;;;;6.15;4.47;;;10.30;99.90;;;;;;5075094;28;20027;-73
2024/03/13 09:54:04;;;;;;;3.90;3.50;;;10.30;99.90;;;;;;5062914;28;20027;-73
2024/03/13 09:56:30;;;;;;;;;;;10.30;99.90;;;;;;5075354;28;20508;-73
2024/03/13 09:58:56;;;;;;;9.07;4.30;;;10.40;99.90;;;;;;5076666;28;20040;-73
2024/03/13 10:01:31;;;;;;;6.90;4.80;;;10.50;99.90;;;;;;5072305;28;20020;-74
2024/03/13 10:04:10;;;;;;;7.32;4.10;;;10.50;99.90;;;;;;5083625;28;20099;-74
2024/03/13 10:06:39;;;;;;;8.82;4.50;;;10.50;99.90;;;;;;5076038;28;20021;-74
2024/03/13 10:09:14;;;;;;;4.03;3.60;;;10.50;99.90;;;;;;5075377;28;20025;-74
2024/03/13 10:11:46;;;;;;;6.15;3.78;;;10.50;99.90;;;;;;5083912;28;20016;-74
2024/03/13 10:14:12;;;;;;;4.70;3.65;;;10.60;99.90;;;;;;5080315;28;20043;-74
2024/03/13 10:16:44;;;;;;;4.85;4.18;;;10.80;99.90;;;;;;5082523;28;20478;-74
2024/03/13 10:19:17;;;;;;;5.15;4.07;;;10.80;99.90;;;;;;5087492;28;20024;-74
2024/03/13 10:21:44;;;;;;;7.18;3.28;;;10.90;99.90;;;;;;5060133;28;20024;-73
2024/03/13 10:24:12;;;;;;;6.45;3.75;;;10.90;99.90;;;;;;5084807;28;20484;-74
2024/03/13 10:26:42;;;;;;;4.75;3.90;;;10.80;99.90;;;;;;5051593;28;20441;-72
2024/03/13 10:29:10;;;;;;;;;;;10.90;99.90;;;;;;5053327;28;20024;-74
2024/03/13 10:31:38;;;;;;;6.25;3.33;;;11.00;99.90;;;;;;5070484;28;19909;-74
2024/03/13 10:34:05;;;;;;;4.70;2.85;;;11.10;99.90;;;;;;5071044;28;20065;-73
2024/03/13 10:36:32;;;;;;;4.35;3.00;;;11.20;99.90;;;;;;5070531;28;20440;-73
2024/03/13 10:39:01;;;;;;;3.13;2.70;;;11.30;99.90;;;;;;5069738;28;20058;-74
2024/03/13 10:41:30;;;;;;;4.07;2.38;;;11.30;99.90;;;;;;5052558;28;20028;-73
2024/03/13 10:43:56;;;;;;;5.65;4.28;;;11.30;99.90;;;;;;5070482;28;20179;-74
2024/03/13 10:46:23;;;;;;;6.20;3.08;;;11.40;99.90;;;;;;5067536;28;21326;-74
2024/03/13 10:48:49;;;;;;;7.20;3.80;;;11.50;99.90;;;;;;5070320;28;20129;-73
2024/03/13 10:51:16;;;;;;;4.82;2.92;;;11.50;99.90;;;;;;5069621;28;20029;-73
2024/03/13 10:53:45;;;;;;;4.25;2.90;;;11.60;99.90;;;;;;5052959;28;20473;-74
2024/03/13 10:56:16;;;;;;;5.35;3.17;;;11.60;99.90;;;;;;5052005;28;20033;-73
2024/03/13 10:58:49;;;;;;;5.00;2.80;;;11.50;99.90;;;;;;5075351;28;20028;-73
2024/03/13 11:01:19;;;;;;;4.55;2.05;;;11.70;99.90;;;;;;5069599;28;20522;-73
2024/03/13 11:03:45;;;;;;;3.13;1.48;;;11.80;99.90;;;;;;5069654;28;20162;-73
2024/03/13 11:06:14;;;;;;;2.60;1.35;;;11.90;99.90;;;;;;5034441;28;20032;-73
2024/03/13 11:08:49;;;;;;;1.77;1.42;;;12.00;99.90;;;;;;5069916;28;20086;-73
2024/03/13 11:11:16;;;;;;;2.80;1.45;;;12.10;99.90;;;;;;5051325;28;20147;-73
2024/03/13 11:13:50;;;;;;;4.88;1.90;;;12.10;99.90;;;;;;5069570;28;20027;-72
2024/03/13 11:16:17;;;;;;;2.30;1.35;;;12.00;99.90;;;;;;5069780;28;20037;-70
2024/03/13 11:18:46;;;;;;;1.45;1.05;;;12.00;99.90;;;;;;5069724;28;20047;-73
2024/03/13 11:21:20;;;;;;;1.27;1.10;;;11.90;99.90;;;;;;5069130;28;20024;-73
2024/03/13 11:23:53;;;;;;;3.25;1.58;;;11.80;99.90;;;;;;5069505;28;20472;-72
2024/03/13 11:26:21;;;;;;;2.42;1.70;;;11.70;99.90;;;;;;5081346;28;20059;-70
2024/03/13 11:28:52;;;;;;;3.90;1.70;;;11.50;99.90;;;;;;5071875;28;20024;-73
2024/03/13 11:31:19;;;;;;;3.92;1.80;;;11.40;99.90;;;;;;5089629;28;20027;-73
2024/03/13 11:33:46;;;;;;;3.10;1.90;;;11.30;99.90;;;;;;5071544;28;20488;-73
2024/03/13 11:36:13;;;;;;;3.83;1.90;;;11.30;99.90;;;;;;5089522;28;20027;-78
2024/03/13 11:38:39;;;;;;;3.80;1.73;;;11.20;99.90;;;;;;5089999;28;20021;-76
2024/03/13 11:41:05;;;;;;;3.20;1.42;;;11.30;99.90;;;;;;5089323;28;20047;-71
2024/03/13 11:43:32;;;;;;;2.55;1.70;;;11.40;99.90;;;;;;5090480;28;20444;-71
2024/03/13 11:45:59;;;;;;;4.80;1.98;;;11.50;99.90;;;;;;5089061;28;20077;-71
2024/03/13 11:48:25;;;;;;;2.03;1.50;;;11.50;99.90;;;;;;5090249;28;20115;-71
2024/03/13 11:51:10;;;;;;;3.65;1.83;;;11.60;99.90;;;;;;5088619;28;20091;-71
2024/03/13 11:53:40;;;;;;;3.70;2.83;;;11.50;99.90;;;;;;5079381;28;20070;-71
2024/03/13 11:56:06;;;;;;;;;;;11.50;99.90;;;;;;5089570;28;20062;-71
2024/03/13 11:58:33;;;;;;;3.90;2.97;;;11.40;99.90;;;;;;5090121;28;19981;-72
2024/03/13 12:00:59;;;;;;;3.60;3.03;;;11.30;99.90;;;;;;5070402;28;20111;-71
2024/03/13 12:03:45;;;;;;;5.25;3.45;;;11.30;99.90;;;;;;5072549;28;20470;-72
2024/03/13 12:06:40;;;;;;;4.50;3.42;;;11.30;99.90;;;;;;5088776;28;20124;-71
2024/03/13 12:09:16;;;;;;;5.85;3.97;;;11.20;99.90;;;;;;4988183;28;20113;-71
2024/03/13 12:11:51;;;;;;;5.80;4.70;;;11.10;99.90;;;;;;4985709;28;20093;-71
2024/03/13 12:14:17;;;;;;;6.03;4.45;;;11.10;99.90;;;;;;4988521;28;20034;-71
2024/03/13 12:16:42;;;;;;;7.82;5.13;;;11.20;99.90;;;;;;4990973;28;20030;-70
2024/03/13 12:19:09;;;;;;;5.60;4.13;;;11.20;99.90;;;;;;4991596;28;20204;-72
2024/03/13 12:21:38;;;;;;;8.30;4.32;;;11.20;99.90;;;;;;4990558;28;20035;-74
2024/03/13 12:24:04;;;;;;;6.63;4.40;;;11.10;99.90;;;;;;4991665;28;20179;-75
2024/03/13 12:26:29;;;;;;;7.13;5.53;;;11.10;99.90;;;;;;4990861;28;20074;-74
2024/03/13 12:28:55;;;;;;;6.60;4.50;;;11.00;99.90;;;;;;4993561;28;20050;-74
2024/03/13 12:31:21;;;;;;;9.68;5.43;;;11.00;99.90;;;;;;4976516;28;20034;-74
2024/03/13 12:33:53;;;;;;;7.13;5.03;;;11.00;99.90;;;;;;4991351;28;20046;-75
2024/03/13 12:36:19;;;;;;;7.40;4.80;;;10.90;99.90;;;;;;4992167;28;20486;-76
2024/03/13 12:38:46;;;;;;;5.75;4.53;;;10.90;99.90;;;;;;4992212;28;20034;-76
2024/03/13 12:41:12;;;;;;;8.60;4.90;;;10.90;99.90;;;;;;4963588;28;20538;-75
2024/03/13 12:43:40;;;;;;;5.97;4.70;;;11.10;99.90;;;;;;4994275;28;20081;-73
2024/03/13 12:46:06;;;;;;;8.38;5.05;;;11.30;99.90;;;;;;4964051;28;20040;-73
2024/03/13 12:48:32;;;;;;;5.13;4.00;;;11.50;99.90;;;;;;5089034;28;20032;-73
2024/03/13 12:51:00;;;;;;;4.60;3.90;;;11.70;99.90;;;;;;5090127;28;20475;-72
2024/03/13 12:53:29;;;;;;;3.90;3.30;;;12.00;99.90;;;;;;5093613;28;20099;-72
2024/03/13 12:55:55;;;;;;;4.90;3.45;;;12.20;99.90;;;;;;5091151;28;20075;-73
2024/03/13 12:58:22;;;;;;;3.53;2.35;;;12.30;99.90;;;;;;5093487;28;20055;-73
2024/03/13 13:00:48;;;;;;;3.03;2.60;;;12.40;99.90;;;;;;5091399;28;20024;-73
2024/03/13 13:03:15;;;;;;;2.35;1.85;;;12.30;99.90;;;;;;5075769;28;20028;-74
2024/03/13 13:05:44;;;;;;;2.50;1.90;;;12.30;99.90;;;;;;5092462;28;20028;-73
2024/03/13 13:08:21;;;;;;;1.90;1.60;;;12.10;99.90;;;;;;5092967;28;20020;-74
2024/03/13 13:10:50;;;;;;;1.77;1.13;;;12.10;99.90;;;;;;5094419;28;20476;-72
2024/03/13 13:13:16;;;;;;;2.17;1.48;;;12.00;99.90;;;;;;5074993;28;20430;-74
2024/03/13 13:15:42;;;;;;;1.60;1.42;;;12.10;99.90;;;;;;5093062;28;20028;-72
2024/03/13 13:18:10;;;;;;;0.98;0.98;;;12.10;99.90;;;;;;5093423;28;20028;-72